Time;durP1;ratioP1;P1;durP2;ratioP2;P2;SDS_P1;SDS_P2;PMS_P1;PMS_P2;Temp;Humidity;BMP_temperature;BMP_pressure;BME280_temperature;BME280_humidity;BME280_pressure;Samples;Min_cycle;Max_cycle;Signal;HPM_P1;HPM_P2
2021/04/22 00:01:33;;;;;;;;;;;11.90;99.90;;;;;;5010672;28;20347;-79
2021/04/22 00:03:59;;;;;;;;;;;11.80;99.90;;;;;;4993632;28;20024;-79
2021/04/22 00:06:24;;;;;;;;;;;11.80;99.90;;;;;;4995367;28;19912;-79
2021/04/22 00:08:50;;;;;;;;;;;11.80;99.90;;;;;;4994076;28;20277;-79
2021/04/22 00:11:15;;;;;;;;;;;11.70;99.90;;;;;;4994002;28;19912;-79
2021/04/22 00:13:41;;;;;;;;;;;11.70;99.90;;;;;;4994162;28;19959;-79
2021/04/22 00:16:07;;;;;;;;;;;11.60;99.90;;;;;;4994685;28;19933;-79
2021/04/22 00:18:32;;;;;;;;;;;11.60;99.90;;;;;;4993979;28;19949;-79
2021/04/22 00:20:58;;;;;;;;;;;11.60;99.90;;;;;;4993989;28;19913;-79
2021/04/22 00:23:23;;;;;;;;;;;11.50;99.90;;;;;;4993816;28;19909;-78
2021/04/22 00:25:49;;;;;;;;;;;11.30;99.90;;;;;;4994459;28;19913;-79
2021/04/22 00:28:15;;;;;;;;;;;11.30;99.90;;;;;;5010042;28;20385;-79
2021/04/22 00:30:41;;;;;;;;;;;11.30;99.90;;;;;;4993690;28;19912;-79
2021/04/22 00:33:08;;;;;;;;;;;11.20;99.90;;;;;;4995021;28;19906;-79
2021/04/22 00:35:34;;;;;;;;;;;11.10;99.90;;;;;;4993203;28;20436;-79
2021/04/22 00:37:59;;;;;;;;;;;11.10;99.90;;;;;;4994775;28;19906;-79
2021/04/22 00:40:26;;;;;;;;;;;11.00;99.90;;;;;;4993370;28;20277;-79
2021/04/22 00:42:51;;;;;;;;;;;11.00;99.90;;;;;;4993356;28;19909;-79
2021/04/22 00:45:17;;;;;;;;;;;11.00;99.90;;;;;;4992876;28;19960;-79
2021/04/22 00:47:43;;;;;;;;;;;10.90;99.90;;;;;;4993433;28;19905;-79
2021/04/22 00:50:18;;;;;;;;;;;10.80;99.90;;;;;;4993291;28;19906;-79
2021/04/22 00:52:44;;;;;;;;;;;10.70;99.90;;;;;;4994552;28;19913;-79
2021/04/22 00:55:11;;;;;;;;;;;10.60;99.90;;;;;;4992740;28;19910;-79
2021/04/22 00:57:36;;;;;;;;;;;10.60;99.90;;;;;;4993550;28;19906;-79
2021/04/22 01:00:04;;;;;;;;;;;10.60;99.90;;;;;;4994223;28;19953;-79
2021/04/22 01:02:30;;;;;;;;;;;10.50;99.90;;;;;;4992941;28;19910;-79
2021/04/22 01:04:55;;;;;;;;;;;10.50;99.90;;;;;;4993789;28;20004;-79
2021/04/22 01:07:21;;;;;;;;;;;10.30;99.90;;;;;;4993001;28;19913;-79
2021/04/22 01:09:46;;;;;;;;;;;10.20;99.90;;;;;;4992841;28;19909;-79
2021/04/22 01:12:12;;;;;;;;;;;10.10;99.90;;;;;;4992906;28;20361;-79
2021/04/22 01:14:39;;;;;;;;;;;10.10;99.90;;;;;;4992304;28;19905;-79
2021/04/22 01:17:06;;;;;;;;;;;10.10;99.90;;;;;;4992799;28;19905;-79
2021/04/22 01:19:31;;;;;;;;;;;10.10;99.90;;;;;;4992760;28;19937;-79
2021/04/22 01:21:56;;;;;;;;;;;10.00;99.90;;;;;;4993500;28;20007;-79
2021/04/22 01:24:22;;;;;;;;;;;10.00;99.90;;;;;;4992104;28;20281;-79
2021/04/22 01:26:47;;;;;;;;;;;10.00;99.90;;;;;;5009067;28;19910;-79
2021/04/22 01:29:13;;;;;;;;;;;9.90;99.90;;;;;;4992144;28;19905;-79
2021/04/22 01:31:39;;;;;;;;;;;9.90;99.90;;;;;;4992588;28;19952;-79
2021/04/22 01:34:06;;;;;;;;;;;10.00;99.90;;;;;;4992127;28;19921;-79
2021/04/22 01:36:35;;;;;;;;;;;9.90;99.90;;;;;;4992346;28;20290;-79
2021/04/22 01:39:02;;;;;;;;;;;9.90;99.90;;;;;;4992414;28;20432;-79
2021/04/22 01:41:28;;;;;;;;;;;9.80;99.90;;;;;;4992259;28;19910;-79
2021/04/22 01:43:54;;;;;;;;;;;9.80;99.90;;;;;;4992875;28;19916;-79
2021/04/22 01:46:19;;;;;;;;;;;9.80;99.90;;;;;;4992064;28;19957;-79
2021/04/22 01:48:45;;;;;;;;;;;9.80;99.90;;;;;;4992292;28;19906;-79
2021/04/22 01:51:10;;;;;;;;;;;9.80;99.90;;;;;;4992211;28;19945;-79
2021/04/22 01:53:36;;;;;;;;;;;9.70;99.90;;;;;;4993447;28;20384;-79
2021/04/22 01:56:02;;;;;;;;;;;9.70;99.90;;;;;;5008017;28;19960;-79
2021/04/22 01:58:27;;;;;;;;;;;9.70;99.90;;;;;;5008753;28;19917;-78
2021/04/22 02:00:54;;;;;;;;;;;9.80;99.90;;;;;;4993210;28;19906;-78
2021/04/22 02:03:20;;;;;;;;;;;9.80;99.90;;;;;;4993281;28;19909;-79
2021/04/22 02:05:45;;;;;;;;;;;9.70;99.90;;;;;;4991459;28;20361;-79
2021/04/22 02:08:11;;;;;;;;;;;9.80;99.90;;;;;;4992336;28;19952;-79
2021/04/22 02:10:37;;;;;;;;;;;9.70;99.90;;;;;;4991939;28;20357;-79
2021/04/22 02:13:03;;;;;;;;;;;9.70;99.90;;;;;;4991950;28;20407;-79
2021/04/22 02:15:29;;;;;;;;;;;9.70;99.90;;;;;;4991380;28;19937;-79
2021/04/22 02:17:55;;;;;;;;;;;9.60;99.90;;;;;;4991894;28;19948;-79
2021/04/22 02:20:21;;;;;;;;;;;9.60;99.90;;;;;;4991639;28;19992;-79
2021/04/22 02:22:47;;;;;;;;;;;9.60;99.90;;;;;;4991121;28;19980;-79
2021/04/22 02:25:14;;;;;;;;;;;9.70;99.90;;;;;;4991905;28;19996;-79
2021/04/22 02:27:39;;;;;;;;;;;9.60;99.90;;;;;;4991209;28;19910;-79
2021/04/22 02:30:06;;;;;;;;;;;9.50;99.90;;;;;;4991028;28;19956;-79
2021/04/22 02:32:32;;;;;;;;;;;9.50;99.90;;;;;;4991144;28;19981;-79
2021/04/22 02:34:57;;;;;;;;;;;9.60;99.90;;;;;;4990541;28;19936;-79
2021/04/22 02:37:22;;;;;;;;;;;9.60;99.90;;;;;;4990986;28;19906;-80
2021/04/22 02:39:48;;;;;;;;;;;9.60;99.90;;;;;;4991051;28;19910;-79
2021/04/22 02:42:13;;;;;;;;;;;9.50;99.90;;;;;;4995390;28;19906;-79
2021/04/22 02:44:39;;;;;;;;;;;9.50;99.90;;;;;;5011091;28;19906;-80
2021/04/22 02:47:04;;;;;;;;;;;9.60;99.90;;;;;;4994276;28;20361;-79
2021/04/22 02:49:30;;;;;;;;;;;9.50;99.90;;;;;;5010372;28;19910;-79
2021/04/22 02:51:55;;;;;;;;;;;9.50;99.90;;;;;;4995383;28;19913;-79
2021/04/22 02:54:22;;;;;;;;;;;9.40;99.90;;;;;;4993745;28;20399;-79
2021/04/22 02:56:47;;;;;;;;;;;9.40;99.90;;;;;;4994213;28;19940;-79
2021/04/22 02:59:13;;;;;;;;;;;9.30;99.90;;;;;;4995248;28;20353;-79
2021/04/22 03:01:38;;;;;;;;;;;9.30;99.90;;;;;;4994102;28;20001;-79
2021/04/22 03:04:04;;;;;;;;;;;9.20;99.90;;;;;;4993502;28;19929;-79
2021/04/22 03:06:29;;;;;;;;;;;9.30;99.90;;;;;;4995546;28;20000;-79
2021/04/22 03:08:55;;;;;;;;;;;9.30;99.90;;;;;;4994059;28;19912;-79
2021/04/22 03:11:20;;;;;;;;;;;9.20;99.90;;;;;;4995028;28;20365;-79
2021/04/22 03:13:46;;;;;;;;;;;9.20;99.90;;;;;;4993929;28;19906;-79
2021/04/22 03:16:11;;;;;;;;;;;9.20;99.90;;;;;;4993525;28;20324;-79
2021/04/22 03:18:37;;;;;;;;;;;9.20;99.90;;;;;;4993841;28;19987;-79
2021/04/22 03:21:02;;;;;;;;;;;9.10;99.90;;;;;;4976700;28;546864;-79
2021/04/22 03:23:28;;;;;;;;;;;9.10;99.90;;;;;;4994799;28;19957;-79
2021/04/22 03:25:53;;;;;;;;;;;9.10;99.90;;;;;;4995744;28;19913;-79
2021/04/22 03:28:19;;;;;;;;;;;9.10;99.90;;;;;;4996240;28;19906;-79
2021/04/22 03:30:44;;;;;;;;;;;9.10;99.90;;;;;;4994878;28;19910;-79
2021/04/22 03:33:10;;;;;;;;;;;9.10;99.90;;;;;;4994596;28;20458;-79
2021/04/22 03:35:35;;;;;;;;;;;9.00;99.90;;;;;;4994105;28;19956;-79
2021/04/22 03:38:01;;;;;;;;;;;9.00;99.90;;;;;;5011031;28;19996;-79
2021/04/22 03:40:27;;;;;;;;;;;9.00;99.90;;;;;;4994717;28;19909;-79
2021/04/22 03:42:53;;;;;;;;;;;8.90;99.90;;;;;;4995848;28;19956;-79
2021/04/22 03:45:19;;;;;;;;;;;9.00;99.90;;;;;;4994030;28;19905;-79
2021/04/22 03:47:44;;;;;;;;;;;8.90;99.90;;;;;;4994406;28;19956;-79
2021/04/22 03:50:11;;;;;;;;;;;8.90;99.90;;;;;;4995580;28;20000;-79
2021/04/22 03:52:37;;;;;;;;;;;8.90;99.90;;;;;;4995287;28;19913;-78
2021/04/22 03:55:03;;;;;;;;;;;8.80;99.90;;;;;;4995017;28;19906;-79
2021/04/22 03:57:29;;;;;;;;;;;8.70;99.90;;;;;;4994328;28;19905;-78
2021/04/22 03:59:54;;;;;;;;;;;8.60;99.90;;;;;;4994194;28;19906;-79
2021/04/22 04:02:20;;;;;;;;;;;8.50;99.90;;;;;;4995441;28;20364;-79
2021/04/22 04:04:45;;;;;;;;;;;8.40;99.90;;;;;;4993873;28;20365;-79
2021/04/22 04:07:11;;;;;;;;;;;8.40;99.90;;;;;;4996141;28;19952;-79
2021/04/22 04:09:36;;;;;;;;;;;8.40;99.90;;;;;;4994247;28;19918;-79
2021/04/22 04:12:03;;;;;;;;;;;8.40;99.90;;;;;;4994269;28;19913;-79
2021/04/22 04:14:28;;;;;;;;;;;8.30;99.90;;;;;;4993775;28;19964;-79
2021/04/22 04:16:54;;;;;;;;;;;8.30;99.90;;;;;;4994181;28;20015;-79
2021/04/22 04:19:19;;;;;;;;;;;8.20;99.90;;;;;;4994009;28;19909;-79
2021/04/22 04:21:45;;;;;;;;;;;8.20;99.90;;;;;;4994002;28;19913;-78
2021/04/22 04:24:10;;;;;;;;;;;8.20;99.90;;;;;;4994681;28;19909;-79
2021/04/22 04:26:36;;;;;;;;;;;8.10;99.90;;;;;;4994086;28;20349;-79
2021/04/22 04:29:01;;;;;;;;;;;8.00;99.90;;;;;;4995127;28;19957;-79
2021/04/22 04:31:27;;;;;;;;;;;8.00;99.90;;;;;;4995435;28;20427;-78
2021/04/22 04:33:52;;;;;;;;;;;8.00;99.90;;;;;;5011830;28;19960;-78
2021/04/22 04:36:18;;;;;;;;;;;8.00;99.90;;;;;;5011387;28;20285;-79
2021/04/22 04:38:43;;;;;;;;;;;8.00;99.90;;;;;;5011299;28;19905;-79
2021/04/22 04:41:09;;;;;;;;;;;8.00;99.90;;;;;;4994790;28;19906;-78
2021/04/22 04:43:34;;;;;;;;;;;7.90;99.90;;;;;;4995922;28;19909;-78
2021/04/22 04:46:00;;;;;;;;;;;7.90;99.90;;;;;;4994799;28;20365;-79
2021/04/22 04:48:25;;;;;;;;;;;8.10;99.90;;;;;;4994776;28;19917;-79
2021/04/22 04:53:26;;;;;;;;;;;8.20;99.90;;;;;;5082842;23;20302;-80
2021/04/22 04:55:52;;;;;;;;;;;8.20;99.90;;;;;;5034303;28;19911;-79
2021/04/22 04:58:17;;;;;;;;;;;8.00;99.90;;;;;;5034511;28;20339;-79
2021/04/22 05:00:43;;;;;;;;;;;7.90;99.90;;;;;;5034183;28;19905;-79
2021/04/22 05:06:12;;;;;;;;;;;8.00;99.90;;;;;;5035046;28;19912;-80
2021/04/22 05:08:37;;;;;;;;;;;8.10;99.90;;;;;;5034028;28;19905;-79
2021/04/22 05:11:04;;;;;;;;;;;8.10;99.90;;;;;;5272146;23;19926;-80
2021/04/22 05:13:32;;;;;;;;;;;8.00;99.90;;;;;;5071548;28;19947;-81
2021/04/22 05:15:59;;;;;;;;;;;8.20;99.90;;;;;;5070442;28;19935;-80
2021/04/22 05:18:28;;;;;;;;;;;8.20;99.90;;;;;;5070167;28;19905;-81
2021/04/22 05:20:54;;;;;;;;;;;8.30;99.90;;;;;;5070268;28;20282;-79
2021/04/22 05:23:20;;;;;;;;;;;8.30;99.90;;;;;;5060126;28;19908;-80
2021/04/22 05:25:47;;;;;;;;;;;8.30;99.90;;;;;;5064843;28;19968;-80
2021/04/22 05:28:27;;;;;;;;;;;8.50;99.90;;;;;;5064972;28;19944;-80
2021/04/22 05:31:13;;;;;;;;;;;8.40;99.90;;;;;;5068873;28;19904;-79
2021/04/22 05:33:40;;;;;;;;;;;8.60;99.90;;;;;;5062211;28;19955;-81
2021/04/22 05:36:07;;;;;;;;;;;8.90;99.90;;;;;;5053470;28;19905;-81
2021/04/22 05:38:33;;;;;;;;;;;8.80;99.90;;;;;;5053443;28;19912;-81
2021/04/22 05:40:59;;;;;;;;;;;9.20;99.90;;;;;;5054542;28;19904;-81
2021/04/22 05:43:25;;;;;;;;;;;9.00;99.90;;;;;;5052311;28;19916;-80
2021/04/22 05:45:51;;;;;;;;;;;9.40;99.90;;;;;;5051168;28;19944;-81
2021/04/22 05:48:17;;;;;;;;;;;9.90;99.90;;;;;;5053738;28;19912;-81
2021/04/22 06:03:23;;;;;;;;;;;11.20;99.90;;;;;;5072370;28;19951;-78
2021/04/22 06:37:54;;;;;;;3.15;1.50;;;15.00;91.80;;;;;;4995750;28;20042;-78
2021/04/22 06:43:42;;;;;;;4.10;1.88;;;15.30;81.60;;;;;;5506730;23;20096;-81
2021/04/22 06:46:08;;;;;;;;;;;13.70;87.70;;;;;;5032506;28;20056;-79
2021/04/22 06:48:34;;;;;;;;;;;13.00;90.30;;;;;;5032565;28;20385;-79
2021/04/22 06:51:01;;;;;;;3.63;1.25;;;14.20;90.40;;;;;;5032229;28;20354;-82
2021/04/22 06:53:30;;;;;;;3.67;1.77;;;15.50;85.30;;;;;;5032317;28;20558;-81
2021/04/22 06:55:56;;;;;;;;;;;15.00;80.00;;;;;;5032324;28;20083;-80
2021/04/22 06:58:22;;;;;;;2.03;1.20;;;14.20;84.00;;;;;;5032054;28;20000;-80
2021/04/22 07:14:00;;;;;;;;;;;16.50;70.00;;;;;;5679101;23;20048;-80
2021/04/22 07:16:26;;;;;;;3.40;1.05;;;17.70;66.00;;;;;;5050280;28;19969;-80
2021/04/22 07:18:52;;;;;;;6.50;1.40;;;18.80;60.90;;;;;;5049376;28;20029;-80
2021/04/22 07:21:19;;;;;;;2.78;1.90;;;19.10;57.40;;;;;;5050155;28;19995;-80
2021/04/22 07:23:49;;;;;;;4.10;1.38;;;18.10;55.70;;;;;;5051526;28;20025;-81
2021/04/22 07:26:15;;;;;;;3.15;1.40;;;17.40;57.60;;;;;;5051738;28;20021;-80
2021/04/22 07:28:41;;;;;;;7.40;1.60;;;17.90;56.20;;;;;;5053217;28;20021;-80
2021/04/22 07:34:37;;;;;;;3.03;1.15;;;19.50;51.40;;;;;;4997648;28;20045;-80
2021/04/22 07:37:03;;;;;;;3.28;1.55;;;17.50;53.50;;;;;;4972563;28;20022;-80
2021/04/22 07:39:45;;;;;;;4.03;1.40;;;17.20;56.30;;;;;;5039114;28;20506;-78
2021/04/22 07:49:48;;;;;;;1.83;0.95;;;17.80;52.50;;;;;;5021467;28;20032;-80
2021/04/22 07:52:16;;;;;;;1.92;0.93;;;18.70;50.20;;;;;;5056893;28;20056;-81
2021/04/22 07:54:42;;;;;;;3.40;1.10;;;20.00;49.00;;;;;;5059034;28;20021;-82
2021/04/22 07:57:09;;;;;;;;;;;19.60;46.50;;;;;;5074405;28;19909;-78
2021/04/22 07:59:35;;;;;;;4.87;1.33;;;18.30;50.50;;;;;;5076525;28;19913;-79
2021/04/22 08:02:00;;;;;;;2.00;1.10;;;18.60;47.90;;;;;;5068795;28;20720;-81
2021/04/22 08:04:26;;;;;;;7.55;2.20;;;20.10;47.10;;;;;;5072118;28;20060;-78
2021/04/22 08:06:52;;;;;;;;;;;19.00;48.40;;;;;;5065433;28;20127;-82
2021/04/22 08:09:17;;;;;;;3.70;1.25;;;20.20;46.10;;;;;;5061768;28;19905;-83
2021/04/22 08:11:43;;;;;;;6.60;1.85;;;20.80;46.90;;;;;;5052923;28;20383;-79
2021/04/22 08:14:09;;;;;;;3.05;1.02;;;20.90;45.30;;;;;;5051931;28;20056;-80
2021/04/22 08:16:34;;;;;;;1.73;0.82;;;22.60;45.30;;;;;;5052485;28;20052;-81
2021/04/22 08:19:03;;;;;;;3.50;1.02;;;23.00;44.10;;;;;;5051599;28;20083;-81
2021/04/22 08:21:30;;;;;;;6.38;1.40;;;23.60;42.80;;;;;;5052136;28;20029;-81
2021/04/22 08:23:56;;;;;;;2.08;1.15;;;22.30;42.30;;;;;;5051726;28;20402;-80
2021/04/22 08:26:22;;;;;;;;;;;20.70;43.80;;;;;;5053836;28;20021;-80
2021/04/22 08:28:49;;;;;;;4.50;1.42;;;20.50;45.80;;;;;;5053573;28;19911;-82
2021/04/22 08:31:23;;;;;;;3.33;1.75;;;22.00;43.40;;;;;;5053718;28;20029;-81
2021/04/22 08:33:52;;;;;;;3.05;1.95;;;22.30;42.50;;;;;;5051676;28;20048;-82
2021/04/22 08:36:18;;;;;;;3.72;1.05;;;21.90;43.10;;;;;;5051701;28;20021;-83
2021/04/22 08:38:44;;;;;;;3.42;1.35;;;23.20;45.20;;;;;;5051015;28;20021;-83
2021/04/22 08:41:10;;;;;;;4.28;1.77;;;21.30;43.10;;;;;;5053656;28;20025;-84
2021/04/22 08:43:37;;;;;;;1.97;1.10;;;21.10;44.50;;;;;;5066748;28;20028;-83
2021/04/22 08:46:04;;;;;;;5.40;1.13;;;21.20;45.30;;;;;;5066342;28;20098;-83
2021/04/22 08:48:30;;;;;;;4.85;1.42;;;21.20;42.90;;;;;;5058801;28;20078;-83
2021/04/22 08:50:55;;;;;;;3.80;1.40;;;20.90;42.30;;;;;;5056564;28;20075;-83
2021/04/22 08:53:25;;;;;;;6.10;1.90;;;20.80;42.70;;;;;;5053879;28;20033;-83
2021/04/22 08:55:52;;;;;;;4.90;1.50;;;20.90;42.40;;;;;;5053743;28;20021;-80
2021/04/22 08:58:19;;;;;;;2.63;1.47;;;20.50;43.60;;;;;;5063186;28;19927;-81
2021/04/22 09:01:05;;;;;;;5.00;1.63;;;19.20;44.60;;;;;;5054641;28;20021;-83
2021/04/22 09:03:30;;;;;;;4.18;1.60;;;20.60;43.40;;;;;;5052095;28;20063;-80
2021/04/22 09:05:56;;;;;;;5.38;1.20;;;21.50;43.70;;;;;;5051558;28;20118;-83
2021/04/22 09:08:50;;;;;;;7.53;2.10;;;22.20;41.40;;;;;;5052088;28;20025;-83
2021/04/22 09:11:27;;;;;;;5.43;1.40;;;21.10;41.90;;;;;;5051973;28;20395;-81
2021/04/22 09:13:54;;;;;;;2.47;0.85;;;21.90;41.80;;;;;;5051407;28;20033;-82
2021/04/22 09:16:22;;;;;;;;;;;22.80;40.70;;;;;;5051845;28;20073;-82
2021/04/22 09:18:51;;;;;;;3.47;1.63;;;22.90;40.00;;;;;;5051591;28;19905;-83
2021/04/22 09:21:21;;;;;;;4.10;1.43;;;23.60;39.70;;;;;;5048476;28;20029;-83
2021/04/22 09:24:01;;;;;;;2.30;1.52;;;23.40;41.30;;;;;;5038193;28;20049;-82
2021/04/22 09:26:51;;;;;;;2.30;1.23;;;23.50;40.10;;;;;;5048181;28;20029;-82
2021/04/22 09:29:35;;;;;;;4.93;1.45;;;19.80;42.50;;;;;;5052134;28;20033;-80
2021/04/22 09:32:23;;;;;;;4.70;1.70;;;21.90;43.20;;;;;;5051523;28;20112;-82
2021/04/22 09:34:57;;;;;;;2.63;1.20;;;22.10;42.90;;;;;;5050899;28;20029;-83
2021/04/22 09:37:39;;;;;;;1.42;0.95;;;23.10;40.70;;;;;;5051604;28;20101;-83
2021/04/22 09:40:33;;;;;;;6.10;1.90;;;21.80;40.00;;;;;;5053706;28;20024;-80
2021/04/22 09:43:01;;;;;;;4.40;1.65;;;21.40;43.00;;;;;;5052015;28;20029;-83
2021/04/22 09:45:30;;;;;;;4.63;1.13;;;21.90;42.50;;;;;;5053179;28;20076;-81
2021/04/22 09:47:56;;;;;;;6.93;2.20;;;21.80;42.60;;;;;;5054301;28;20018;-81
2021/04/22 09:50:26;;;;;;;4.07;2.13;;;21.40;41.30;;;;;;5052001;28;20025;-80
2021/04/22 09:52:56;;;;;;;3.25;1.48;;;22.20;41.20;;;;;;5052572;28;20085;-80
2021/04/22 09:55:27;;;;;;;2.55;1.23;;;23.00;39.60;;;;;;5053119;28;20036;-81
2021/04/22 09:57:53;;;;;;;3.25;1.45;;;23.30;39.40;;;;;;5052965;28;20179;-81
2021/04/22 10:00:29;;;;;;;3.38;1.58;;;21.00;40.20;;;;;;5053551;28;20505;-81
2021/04/22 10:02:56;;;;;;;;;;;20.80;42.60;;;;;;5052710;28;20021;-81
2021/04/22 10:05:34;;;;;;;4.28;1.73;;;20.70;42.30;;;;;;5051635;28;20277;-81
2021/04/22 10:08:07;;;;;;;3.88;1.33;;;21.00;42.20;;;;;;5052179;28;20352;-81
2021/04/22 10:10:34;;;;;;;6.68;1.98;;;21.00;40.20;;;;;;5053281;28;20017;-83
2021/04/22 10:13:02;;;;;;;5.20;1.85;;;21.30;40.00;;;;;;5053265;28;20127;-83
2021/04/22 10:15:31;;;;;;;5.70;2.30;;;22.00;41.50;;;;;;5054573;28;20052;-83
2021/04/22 10:18:05;;;;;;;4.55;1.58;;;21.60;41.10;;;;;;5054579;28;20530;-83
2021/04/22 10:20:35;;;;;;;6.38;2.10;;;21.70;39.80;;;;;;5054953;28;20064;-82
2021/04/22 10:23:00;;;;;;;3.30;1.88;;;22.60;39.20;;;;;;5053674;28;20021;-82
2021/04/22 10:25:32;;;;;;;8.02;2.20;;;22.40;38.50;;;;;;5054065;28;20561;-83
2021/04/22 10:28:03;;;;;;;3.80;1.83;;;21.30;41.20;;;;;;5054495;28;20064;-82
2021/04/22 10:30:28;;;;;;;5.05;1.77;;;21.00;41.20;;;;;;5057330;28;20025;-80
2021/04/22 10:32:54;;;;;;;3.75;1.60;;;22.40;42.40;;;;;;5053883;28;20032;-81
2021/04/22 10:35:23;;;;;;;4.88;1.88;;;21.80;39.50;;;;;;5052513;28;20116;-81
2021/04/22 10:37:51;;;;;;;3.55;1.75;;;21.80;41.00;;;;;;5052860;28;20036;-84
2021/04/22 10:40:19;;;;;;;5.00;1.85;;;21.60;41.00;;;;;;5052620;28;20029;-82
2021/04/22 10:42:45;;;;;;;3.90;2.10;;;20.70;41.30;;;;;;5053177;28;20025;-81
2021/04/22 10:45:15;;;;;;;6.18;2.22;;;20.30;41.60;;;;;;5052378;28;20032;-82
2021/04/22 10:47:41;;;;;;;5.70;2.97;;;20.80;42.80;;;;;;5052639;28;20021;-81
2021/04/22 10:50:25;;;;;;;2.45;1.50;;;21.50;40.70;;;;;;5052492;28;20465;-81
2021/04/22 10:52:52;;;;;;;4.55;1.65;;;21.00;40.20;;;;;;5054304;28;20116;-81
2021/04/22 10:55:23;;;;;;;5.32;2.22;;;22.30;40.00;;;;;;5057115;28;20136;-82
2021/04/22 10:57:51;;;;;;;4.57;1.77;;;23.10;40.00;;;;;;5056174;28;20056;-83
2021/04/22 11:00:19;;;;;;;3.10;1.65;;;22.10;40.00;;;;;;5055132;28;20040;-82
2021/04/22 11:02:50;;;;;;;3.53;1.63;;;22.50;38.00;;;;;;5054929;28;20025;-83
2021/04/22 11:05:20;;;;;;;4.97;1.55;;;22.60;38.80;;;;;;5055235;28;20386;-82
2021/04/22 11:08:03;;;;;;;5.63;2.03;;;23.40;38.30;;;;;;5054782;28;20024;-79
2021/04/22 11:10:40;;;;;;;;;;;22.70;40.70;;;;;;5058061;28;20048;-81
2021/04/22 11:13:13;;;;;;;2.90;1.55;;;20.90;42.10;;;;;;5058775;28;19909;-81
2021/04/22 11:15:59;;;;;;;;;;;21.00;41.60;;;;;;5056830;28;20064;-81
2021/04/22 11:18:34;;;;;;;5.00;1.80;;;20.60;40.20;;;;;;5057325;28;19905;-83
2021/04/22 11:21:00;;;;;;;3.78;1.50;;;20.50;40.40;;;;;;5058419;28;20287;-80
2021/04/22 11:23:25;;;;;;;;;;;19.90;41.00;;;;;;5057557;28;20024;-82
2021/04/22 11:25:55;;;;;;;;;;;20.30;39.20;;;;;;5056526;28;19905;-84
2021/04/22 11:28:30;;;;;;;;;;;20.80;40.30;;;;;;5055817;28;19904;-81
2021/04/22 11:31:11;;;;;;;4.93;1.77;;;20.00;40.00;;;;;;5056176;28;19904;-83
2021/04/22 11:33:38;;;;;;;3.10;2.45;;;19.90;44.10;;;;;;5055898;28;20151;-81
2021/04/22 11:36:18;;;;;;;4.45;2.30;;;20.00;41.30;;;;;;5055352;28;20029;-82
2021/04/22 11:38:53;;;;;;;1.90;1.48;;;21.20;42.40;;;;;;5057742;28;20029;-82
2021/04/22 11:41:21;;;;;;;4.68;2.17;;;21.60;43.00;;;;;;5061235;28;20028;-83
2021/04/22 11:43:47;;;;;;;3.85;1.77;;;20.80;40.40;;;;;;5058300;28;20055;-82
2021/04/22 11:46:12;;;;;;;4.35;2.10;;;21.70;40.20;;;;;;5059228;28;20025;-82
2021/04/22 11:48:43;;;;;;;5.38;1.65;;;21.30;40.50;;;;;;5058483;28;20112;-82
2021/04/22 11:51:09;;;;;;;;;;;20.80;39.40;;;;;;5057957;28;20092;-81
2021/04/22 11:53:56;;;;;;;;;;;20.60;40.50;;;;;;5057929;28;19911;-79
2021/04/22 12:02:13;;;;;;;;;;;18.10;43.30;;;;;;5058439;28;19954;-80
2021/04/22 12:04:48;;;;;;;;;;;17.40;44.40;;;;;;5061131;28;19963;-79
2021/04/22 12:07:19;;;;;;;;;;;16.70;46.70;;;;;;5055996;28;20286;-80
2021/04/22 12:09:53;;;;;;;;;;;16.60;47.60;;;;;;5053603;28;19906;-80
2021/04/22 12:12:19;;;;;;;;;;;16.80;46.20;;;;;;5056636;28;20362;-81
2021/04/22 12:14:49;;;;;;;;;;;16.10;43.90;;;;;;5057185;28;19956;-80
2021/04/22 12:17:34;;;;;;;;;;;15.80;44.10;;;;;;5038895;28;19962;-80
2021/04/22 12:20:02;;;;;;;;;;;16.00;45.90;;;;;;5037844;28;19932;-80
2021/04/22 12:22:39;;;;;;;;;;;16.10;48.30;;;;;;5040867;28;19916;-80
2021/04/22 12:25:12;;;;;;;;;;;15.90;50.70;;;;;;5034849;28;19950;-80
2021/04/22 12:27:51;;;;;;;;;;;16.80;50.30;;;;;;5051936;28;19997;-80
2021/04/22 12:36:28;;;;;;;;;;;15.70;48.80;;;;;;5056232;28;19907;-79
2021/04/22 12:39:22;;;;;;;;;;;15.90;48.80;;;;;;5014852;28;20011;-80
2021/04/22 12:45:12;;;;;;;;;;;16.40;46.90;;;;;;5053162;28;19932;-78
2021/04/22 12:47:49;;;;;;;;;;;16.20;46.90;;;;;;5016063;28;20063;-80
2021/04/22 12:50:28;;;;;;;;;;;15.90;47.20;;;;;;5015631;28;19905;-81
2021/04/22 12:53:03;;;;;;;;;;;16.20;49.50;;;;;;5033005;28;19967;-80
2021/04/22 12:55:30;;;;;;;;;;;15.50;45.90;;;;;;5033408;28;19928;-81
2021/04/22 12:57:57;;;;;;;;;;;15.60;49.70;;;;;;5033420;28;19905;-82
2021/04/22 13:00:49;;;;;;;;;;;15.90;46.40;;;;;;5033713;28;19909;-79
2021/04/22 13:03:23;;;;;;;;;;;16.20;48.50;;;;;;5031161;28;19931;-79
2021/04/22 13:05:59;;;;;;;;;;;15.70;46.70;;;;;;5032722;28;19931;-79
2021/04/22 13:08:28;;;;;;;;;;;15.60;46.90;;;;;;5034156;28;19911;-80
2021/04/22 13:13:46;;;;;;;;;;;15.50;45.00;;;;;;5294504;23;19921;-79
2021/04/22 13:16:13;;;;;;;;;;;15.60;46.80;;;;;;5070439;28;19905;-80
2021/04/22 13:18:39;;;;;;;;;;;15.50;45.10;;;;;;5070665;28;19905;-79
2021/04/22 13:21:12;;;;;;;;;;;15.40;47.80;;;;;;5070357;28;19927;-80
2021/04/22 13:23:40;;;;;;;;;;;15.60;46.40;;;;;;5053511;28;19931;-79
2021/04/22 13:26:16;;;;;;;;;;;15.80;46.50;;;;;;5053239;28;19905;-80
2021/04/22 13:28:42;;;;;;;;;;;15.60;46.50;;;;;;5053695;28;20106;-80
2021/04/22 13:31:15;;;;;;;;;;;15.40;46.30;;;;;;5053552;28;19905;-79
2021/04/22 13:33:41;;;;;;;;;;;15.70;46.10;;;;;;5053554;28;19909;-79
2021/04/22 13:36:11;;;;;;;;;;;15.70;46.00;;;;;;5054393;28;19991;-80
2021/04/22 13:38:40;;;;;;;;;;;15.70;47.80;;;;;;5065013;28;19912;-78
2021/04/22 13:41:10;;;;;;;;;;;15.80;47.10;;;;;;5074371;28;19935;-80
2021/04/22 13:43:36;;;;;;;;;;;15.30;46.40;;;;;;5073411;28;19916;-79
2021/04/22 13:46:03;;;;;;;;;;;15.70;46.40;;;;;;5053966;28;19905;-80
2021/04/22 13:48:30;;;;;;;;;;;15.40;46.70;;;;;;5058446;28;20429;-80
2021/04/22 13:53:42;;;;;;;;;;;15.50;46.10;;;;;;4991775;28;19921;-75
2021/04/22 13:56:07;;;;;;;;;;;15.40;44.60;;;;;;4992469;28;20391;-75
2021/04/22 13:58:37;;;;;;;;;;;15.80;46.10;;;;;;4992699;28;20005;-75
2021/04/22 14:01:04;;;;;;;;;;;15.70;47.80;;;;;;4991510;28;19951;-76
2021/04/22 14:03:32;;;;;;;;;;;15.90;49.10;;;;;;4991242;28;19924;-75
2021/04/22 14:05:57;;;;;;;;;;;16.30;48.10;;;;;;4992269;28;20289;-75
2021/04/22 14:08:30;;;;;;;;;;;16.30;47.20;;;;;;4992678;28;20116;-76
2021/04/22 14:10:59;;;;;;;;;;;16.10;45.20;;;;;;4991143;28;19906;-76
2021/04/22 14:13:26;;;;;;;;;;;16.00;47.00;;;;;;4991414;28;19912;-76
2021/04/22 14:15:53;;;;;;;;;;;15.50;45.50;;;;;;4990750;28;19956;-76
2021/04/22 14:18:19;;;;;;;;;;;15.90;46.20;;;;;;5007440;28;19933;-76
2021/04/22 14:20:44;;;;;;;;;;;16.10;47.30;;;;;;4992748;28;19906;-76
2021/04/22 14:23:10;;;;;;;;;;;15.90;45.10;;;;;;4993140;28;19964;-76
2021/04/22 14:25:35;;;;;;;;;;;16.10;46.70;;;;;;5007073;28;19935;-76
2021/04/22 14:28:00;;;;;;;;;;;15.80;46.10;;;;;;4992241;28;19906;-75
2021/04/22 14:30:26;;;;;;;;;;;15.70;46.00;;;;;;4992636;28;19909;-75
2021/04/22 14:32:52;;;;;;;;;;;15.70;46.10;;;;;;4995434;28;20393;-76
2021/04/22 14:35:18;;;;;;;;;;;15.10;46.30;;;;;;4993891;28;19906;-76
2021/04/22 14:37:44;;;;;;;;;;;15.40;46.70;;;;;;4998678;28;19909;-75
2021/04/22 14:40:10;;;;;;;;;;;15.60;47.50;;;;;;4997456;28;20290;-75
2021/04/22 14:42:35;;;;;;;;;;;15.60;46.70;;;;;;4996390;28;19952;-75
2021/04/22 14:45:01;;;;;;;;;;;15.70;47.70;;;;;;4994915;28;19913;-75
2021/04/22 14:47:27;;;;;;;;;;;15.60;48.30;;;;;;4996414;28;20269;-77
2021/04/22 14:49:52;;;;;;;;;;;15.50;46.30;;;;;;4995066;28;19913;-77
2021/04/22 14:52:18;;;;;;;;;;;15.70;47.90;;;;;;4995031;28;19917;-77
2021/04/22 14:54:43;;;;;;;;;;;15.70;47.50;;;;;;5010865;28;19946;-77
2021/04/22 14:57:09;;;;;;;;;;;15.70;46.10;;;;;;4996282;28;20277;-77
2021/04/22 14:59:35;;;;;;;;;;;15.80;46.70;;;;;;4996419;28;19956;-76
2021/04/22 15:02:00;;;;;;;;;;;15.80;47.00;;;;;;4995952;28;19905;-77
2021/04/22 15:04:25;;;;;;;;;;;15.90;48.10;;;;;;4994229;28;19921;-77
2021/04/22 15:06:51;;;;;;;;;;;16.00;46.20;;;;;;4996145;28;19912;-77
2021/04/22 15:09:17;;;;;;;;;;;16.10;45.90;;;;;;4995925;28;19993;-77
2021/04/22 15:11:42;;;;;;;;;;;16.20;44.90;;;;;;4994456;28;20271;-77
2021/04/22 15:14:08;;;;;;;;;;;16.10;46.60;;;;;;4995564;28;19938;-77
2021/04/22 15:16:33;;;;;;;;;;;16.10;45.20;;;;;;4976370;28;19914;-77
2021/04/22 15:18:59;;;;;;;;;;;16.10;45.10;;;;;;4976585;28;19906;-77
2021/04/22 15:21:28;;;;;;;;;;;16.10;43.40;;;;;;4991306;28;19906;-77
2021/04/22 15:23:54;;;;;;;;;;;16.00;43.30;;;;;;4990550;28;19918;-77
2021/04/22 15:26:20;;;;;;;;;;;16.00;44.00;;;;;;4976656;28;20353;-79
2021/04/22 15:28:45;;;;;;;;;;;16.00;44.50;;;;;;4992975;28;19913;-80
2021/04/22 15:31:11;;;;;;;;;;;15.90;44.00;;;;;;5007205;28;19910;-79
2021/04/22 15:33:36;;;;;;;;;;;15.90;44.60;;;;;;5010259;28;19960;-79
2021/04/22 15:36:02;;;;;;;;;;;15.60;44.40;;;;;;4977332;28;19910;-78